sensor_id;sensor_type;location;lat;lon;timestamp;P1;durP1;ratioP1;P2;durP2;ratioP2
14817;SDS011;7500;57.698;11.986;2022-11-15T00:02:04;5.80;;;4.60;;
14817;SDS011;7500;57.698;11.986;2022-11-15T00:04:31;5.63;;;4.37;;
14817;SDS011;7500;57.698;11.986;2022-11-15T00:06:59;5.47;;;4.27;;
14817;SDS011;7500;57.698;11.986;2022-11-15T00:09:25;7.17;;;4.73;;
14817;SDS011;7500;57.698;11.986;2022-11-15T00:11:52;7.30;;;4.27;;
14817;SDS011;7500;57.698;11.986;2022-11-15T00:14:20;5.30;;;4.37;;
14817;SDS011;7500;57.698;11.986;2022-11-15T00:16:47;5.03;;;4.20;;
14817;SDS011;7500;57.698;11.986;2022-11-15T00:19:14;6.10;;;4.00;;
14817;SDS011;7500;57.698;11.986;2022-11-15T00:21:41;5.40;;;4.50;;
14817;SDS011;7500;57.698;11.986;2022-11-15T00:24:08;5.40;;;4.00;;
14817;SDS011;7500;57.698;11.986;2022-11-15T00:26:35;4.93;;;4.30;;
14817;SDS011;7500;57.698;11.986;2022-11-15T00:29:02;5.03;;;4.23;;
14817;SDS011;7500;57.698;11.986;2022-11-15T00:31:30;5.47;;;4.40;;
14817;SDS011;7500;57.698;11.986;2022-11-15T00:33:56;6.33;;;4.63;;
14817;SDS011;7500;57.698;11.986;2022-11-15T00:36:23;6.50;;;4.53;;
14817;SDS011;7500;57.698;11.986;2022-11-15T00:38:50;5.47;;;4.87;;
14817;SDS011;7500;57.698;11.986;2022-11-15T00:41:17;5.90;;;4.80;;
14817;SDS011;7500;57.698;11.986;2022-11-15T00:43:43;5.60;;;4.77;;
14817;SDS011;7500;57.698;11.986;2022-11-15T00:46:10;6.43;;;4.90;;
14817;SDS011;7500;57.698;11.986;2022-11-15T00:48:39;6.97;;;4.80;;
14817;SDS011;7500;57.698;11.986;2022-11-15T00:51:05;6.47;;;4.67;;
14817;SDS011;7500;57.698;11.986;2022-11-15T00:53:32;5.93;;;5.30;;
14817;SDS011;7500;57.698;11.986;2022-11-15T00:55:59;6.50;;;4.47;;
14817;SDS011;7500;57.698;11.986;2022-11-15T00:58:26;5.77;;;4.33;;
14817;SDS011;7500;57.698;11.986;2022-11-15T01:00:52;5.17;;;4.60;;
14817;SDS011;7500;57.698;11.986;2022-11-15T01:03:19;7.50;;;4.50;;
14817;SDS011;7500;57.698;11.986;2022-11-15T01:05:48;5.00;;;4.50;;
14817;SDS011;7500;57.698;11.986;2022-11-15T01:08:15;7.53;;;4.47;;
14817;SDS011;7500;57.698;11.986;2022-11-15T01:10:42;6.97;;;4.53;;
14817;SDS011;7500;57.698;11.986;2022-11-15T01:13:09;5.57;;;4.97;;
14817;SDS011;7500;57.698;11.986;2022-11-15T01:15:38;9.60;;;4.73;;
14817;SDS011;7500;57.698;11.986;2022-11-15T01:18:05;7.40;;;5.13;;
14817;SDS011;7500;57.698;11.986;2022-11-15T01:20:32;6.20;;;4.37;;
14817;SDS011;7500;57.698;11.986;2022-11-15T01:23:00;4.73;;;4.30;;
14817;SDS011;7500;57.698;11.986;2022-11-15T01:25:27;8.10;;;4.87;;
14817;SDS011;7500;57.698;11.986;2022-11-15T01:27:54;5.13;;;4.30;;
14817;SDS011;7500;57.698;11.986;2022-11-15T01:30:21;6.87;;;4.40;;
14817;SDS011;7500;57.698;11.986;2022-11-15T01:32:48;5.33;;;4.10;;
14817;SDS011;7500;57.698;11.986;2022-11-15T01:35:15;6.70;;;4.30;;
14817;SDS011;7500;57.698;11.986;2022-11-15T01:37:42;5.97;;;4.40;;
14817;SDS011;7500;57.698;11.986;2022-11-15T01:40:10;5.53;;;4.50;;
14817;SDS011;7500;57.698;11.986;2022-11-15T01:42:37;5.93;;;4.50;;
14817;SDS011;7500;57.698;11.986;2022-11-15T01:45:04;5.50;;;4.50;;
14817;SDS011;7500;57.698;11.986;2022-11-15T01:47:33;5.00;;;4.30;;
14817;SDS011;7500;57.698;11.986;2022-11-15T01:50:05;5.43;;;4.63;;
14817;SDS011;7500;57.698;11.986;2022-11-15T01:52:34;6.57;;;4.90;;
14817;SDS011;7500;57.698;11.986;2022-11-15T01:55:04;6.33;;;4.60;;
14817;SDS011;7500;57.698;11.986;2022-11-15T01:57:35;6.50;;;5.07;;
14817;SDS011;7500;57.698;11.986;2022-11-15T02:00:04;5.97;;;4.43;;
14817;SDS011;7500;57.698;11.986;2022-11-15T02:02:31;5.50;;;4.33;;
14817;SDS011;7500;57.698;11.986;2022-11-15T02:04:59;5.70;;;4.83;;
14817;SDS011;7500;57.698;11.986;2022-11-15T02:07:26;5.47;;;4.90;;
14817;SDS011;7500;57.698;11.986;2022-11-15T02:09:54;6.10;;;4.97;;
14817;SDS011;7500;57.698;11.986;2022-11-15T02:12:22;5.20;;;4.27;;
14817;SDS011;7500;57.698;11.986;2022-11-15T02:14:51;5.87;;;4.70;;
14817;SDS011;7500;57.698;11.986;2022-11-15T02:17:32;6.40;;;4.53;;
14817;SDS011;7500;57.698;11.986;2022-11-15T02:23:13;7.10;;;5.40;;
14817;SDS011;7500;57.698;11.986;2022-11-15T02:25:57;5.27;;;4.67;;
14817;SDS011;7500;57.698;11.986;2022-11-15T02:28:45;7.97;;;4.63;;
14817;SDS011;7500;57.698;11.986;2022-11-15T02:31:24;5.40;;;4.67;;
14817;SDS011;7500;57.698;11.986;2022-11-15T02:34:00;4.93;;;4.47;;
14817;SDS011;7500;57.698;11.986;2022-11-15T02:36:36;5.60;;;5.00;;
14817;SDS011;7500;57.698;11.986;2022-11-15T02:39:10;5.97;;;4.60;;
14817;SDS011;7500;57.698;11.986;2022-11-15T02:41:45;5.30;;;4.50;;
14817;SDS011;7500;57.698;11.986;2022-11-15T02:44:17;6.00;;;4.37;;
14817;SDS011;7500;57.698;11.986;2022-11-15T02:46:51;6.27;;;4.67;;
14817;SDS011;7500;57.698;11.986;2022-11-15T02:49:39;6.07;;;4.87;;
14817;SDS011;7500;57.698;11.986;2022-11-15T02:52:08;5.83;;;4.70;;
14817;SDS011;7500;57.698;11.986;2022-11-15T02:54:35;5.37;;;4.50;;
14817;SDS011;7500;57.698;11.986;2022-11-15T02:57:03;5.60;;;4.80;;
14817;SDS011;7500;57.698;11.986;2022-11-15T03:02:42;7.33;;;4.63;;
14817;SDS011;7500;57.698;11.986;2022-11-15T03:05:24;5.40;;;4.90;;
14817;SDS011;7500;57.698;11.986;2022-11-15T03:07:57;6.30;;;4.60;;
14817;SDS011;7500;57.698;11.986;2022-11-15T03:10:32;5.10;;;4.60;;
14817;SDS011;7500;57.698;11.986;2022-11-15T03:13:08;6.77;;;4.70;;
14817;SDS011;7500;57.698;11.986;2022-11-15T03:15:43;5.40;;;4.90;;
14817;SDS011;7500;57.698;11.986;2022-11-15T03:18:19;6.93;;;5.10;;
14817;SDS011;7500;57.698;11.986;2022-11-15T03:20:49;8.87;;;5.50;;
14817;SDS011;7500;57.698;11.986;2022-11-15T03:23:17;6.87;;;5.17;;
14817;SDS011;7500;57.698;11.986;2022-11-15T03:25:45;5.60;;;5.10;;
14817;SDS011;7500;57.698;11.986;2022-11-15T03:28:16;6.83;;;5.67;;
14817;SDS011;7500;57.698;11.986;2022-11-15T03:30:47;6.30;;;5.70;;
14817;SDS011;7500;57.698;11.986;2022-11-15T03:33:17;5.73;;;5.23;;
14817;SDS011;7500;57.698;11.986;2022-11-15T03:35:47;9.10;;;5.87;;
14817;SDS011;7500;57.698;11.986;2022-11-15T03:38:15;7.93;;;5.90;;
14817;SDS011;7500;57.698;11.986;2022-11-15T03:40:49;6.30;;;5.70;;
14817;SDS011;7500;57.698;11.986;2022-11-15T03:43:24;7.93;;;6.00;;
14817;SDS011;7500;57.698;11.986;2022-11-15T03:45:58;6.73;;;5.93;;
14817;SDS011;7500;57.698;11.986;2022-11-15T03:48:30;6.77;;;5.53;;
14817;SDS011;7500;57.698;11.986;2022-11-15T03:51:02;7.33;;;6.17;;
14817;SDS011;7500;57.698;11.986;2022-11-15T03:53:30;7.13;;;5.20;;
14817;SDS011;7500;57.698;11.986;2022-11-15T03:55:57;7.23;;;5.93;;
14817;SDS011;7500;57.698;11.986;2022-11-15T03:58:24;7.93;;;6.17;;
14817;SDS011;7500;57.698;11.986;2022-11-15T04:00:51;8.20;;;6.33;;
14817;SDS011;7500;57.698;11.986;2022-11-15T04:03:18;8.53;;;5.67;;
14817;SDS011;7500;57.698;11.986;2022-11-15T04:05:46;8.23;;;5.87;;
14817;SDS011;7500;57.698;11.986;2022-11-15T04:08:12;6.57;;;5.93;;
14817;SDS011;7500;57.698;11.986;2022-11-15T04:10:39;7.13;;;5.73;;
14817;SDS011;7500;57.698;11.986;2022-11-15T04:13:06;6.77;;;6.10;;
14817;SDS011;7500;57.698;11.986;2022-11-15T04:15:33;7.93;;;5.87;;
14817;SDS011;7500;57.698;11.986;2022-11-15T04:18:00;7.43;;;5.47;;
14817;SDS011;7500;57.698;11.986;2022-11-15T04:20:27;6.53;;;5.43;;
14817;SDS011;7500;57.698;11.986;2022-11-15T04:23:15;7.53;;;5.97;;
14817;SDS011;7500;57.698;11.986;2022-11-15T04:26:00;6.57;;;5.47;;
14817;SDS011;7500;57.698;11.986;2022-11-15T04:28:29;7.63;;;6.10;;
14817;SDS011;7500;57.698;11.986;2022-11-15T04:30:56;7.87;;;6.40;;
14817;SDS011;7500;57.698;11.986;2022-11-15T04:33:23;6.63;;;6.00;;
14817;SDS011;7500;57.698;11.986;2022-11-15T04:35:50;7.37;;;6.60;;
14817;SDS011;7500;57.698;11.986;2022-11-15T04:38:33;9.40;;;5.83;;
14817;SDS011;7500;57.698;11.986;2022-11-15T04:41:00;6.90;;;6.20;;
14817;SDS011;7500;57.698;11.986;2022-11-15T04:43:27;6.70;;;5.83;;
14817;SDS011;7500;57.698;11.986;2022-11-15T04:45:54;7.00;;;5.67;;
14817;SDS011;7500;57.698;11.986;2022-11-15T04:48:21;7.33;;;6.20;;
14817;SDS011;7500;57.698;11.986;2022-11-15T04:50:47;7.50;;;6.03;;
14817;SDS011;7500;57.698;11.986;2022-11-15T04:53:15;7.23;;;6.27;;
14817;SDS011;7500;57.698;11.986;2022-11-15T04:55:45;6.97;;;5.97;;
14817;SDS011;7500;57.698;11.986;2022-11-15T04:58:12;7.60;;;6.07;;
14817;SDS011;7500;57.698;11.986;2022-11-15T05:00:38;7.40;;;5.57;;
14817;SDS011;7500;57.698;11.986;2022-11-15T05:03:05;8.47;;;6.33;;
14817;SDS011;7500;57.698;11.986;2022-11-15T05:05:50;7.63;;;5.80;;
14817;SDS011;7500;57.698;11.986;2022-11-15T05:08:17;8.23;;;5.67;;
14817;SDS011;7500;57.698;11.986;2022-11-15T05:10:45;8.40;;;5.63;;
14817;SDS011;7500;57.698;11.986;2022-11-15T05:13:12;8.43;;;5.93;;
14817;SDS011;7500;57.698;11.986;2022-11-15T05:15:38;7.03;;;6.07;;
14817;SDS011;7500;57.698;11.986;2022-11-15T05:18:05;7.20;;;5.70;;
14817;SDS011;7500;57.698;11.986;2022-11-15T05:20:32;6.57;;;5.57;;
14817;SDS011;7500;57.698;11.986;2022-11-15T05:22:59;7.57;;;5.50;;
14817;SDS011;7500;57.698;11.986;2022-11-15T05:25:26;6.63;;;5.40;;
14817;SDS011;7500;57.698;11.986;2022-11-15T05:27:54;6.80;;;5.10;;
14817;SDS011;7500;57.698;11.986;2022-11-15T05:30:21;6.77;;;5.30;;
14817;SDS011;7500;57.698;11.986;2022-11-15T05:32:48;6.63;;;5.60;;
14817;SDS011;7500;57.698;11.986;2022-11-15T05:35:17;7.33;;;5.40;;
14817;SDS011;7500;57.698;11.986;2022-11-15T05:37:50;7.40;;;5.53;;
14817;SDS011;7500;57.698;11.986;2022-11-15T05:40:17;7.23;;;5.30;;
14817;SDS011;7500;57.698;11.986;2022-11-15T05:42:44;7.70;;;5.70;;
14817;SDS011;7500;57.698;11.986;2022-11-15T05:45:13;7.37;;;5.43;;
14817;SDS011;7500;57.698;11.986;2022-11-15T05:47:40;5.90;;;5.23;;
14817;SDS011;7500;57.698;11.986;2022-11-15T05:50:07;7.03;;;5.47;;
14817;SDS011;7500;57.698;11.986;2022-11-15T05:52:39;6.73;;;5.23;;
14817;SDS011;7500;57.698;11.986;2022-11-15T05:55:06;6.07;;;5.30;;
14817;SDS011;7500;57.698;11.986;2022-11-15T05:57:34;6.47;;;5.20;;
14817;SDS011;7500;57.698;11.986;2022-11-15T06:00:02;5.70;;;5.10;;
14817;SDS011;7500;57.698;11.986;2022-11-15T06:02:32;7.87;;;5.33;;
14817;SDS011;7500;57.698;11.986;2022-11-15T06:04:59;6.03;;;5.43;;
14817;SDS011;7500;57.698;11.986;2022-11-15T06:07:26;7.17;;;5.60;;
14817;SDS011;7500;57.698;11.986;2022-11-15T06:09:55;6.70;;;5.37;;
14817;SDS011;7500;57.698;11.986;2022-11-15T06:12:22;7.17;;;5.07;;
14817;SDS011;7500;57.698;11.986;2022-11-15T06:14:49;7.47;;;5.13;;
14817;SDS011;7500;57.698;11.986;2022-11-15T06:17:16;6.80;;;5.27;;
14817;SDS011;7500;57.698;11.986;2022-11-15T06:19:44;6.17;;;5.30;;
14817;SDS011;7500;57.698;11.986;2022-11-15T06:22:11;6.27;;;5.47;;
14817;SDS011;7500;57.698;11.986;2022-11-15T06:24:38;5.93;;;5.10;;
14817;SDS011;7500;57.698;11.986;2022-11-15T06:27:04;6.40;;;5.10;;
14817;SDS011;7500;57.698;11.986;2022-11-15T06:29:31;6.20;;;5.60;;
14817;SDS011;7500;57.698;11.986;2022-11-15T06:31:58;7.47;;;5.33;;
14817;SDS011;7500;57.698;11.986;2022-11-15T06:34:25;6.43;;;5.10;;
14817;SDS011;7500;57.698;11.986;2022-11-15T06:36:53;6.33;;;4.67;;
14817;SDS011;7500;57.698;11.986;2022-11-15T06:39:20;5.23;;;4.70;;
14817;SDS011;7500;57.698;11.986;2022-11-15T06:41:47;6.93;;;5.20;;
14817;SDS011;7500;57.698;11.986;2022-11-15T06:44:14;11.40;;;4.87;;
14817;SDS011;7500;57.698;11.986;2022-11-15T06:46:41;6.20;;;4.90;;
14817;SDS011;7500;57.698;11.986;2022-11-15T06:49:08;7.47;;;5.27;;
14817;SDS011;7500;57.698;11.986;2022-11-15T06:51:35;5.83;;;4.83;;
14817;SDS011;7500;57.698;11.986;2022-11-15T06:54:03;6.87;;;4.60;;
14817;SDS011;7500;57.698;11.986;2022-11-15T06:56:30;5.77;;;4.53;;
14817;SDS011;7500;57.698;11.986;2022-11-15T06:58:57;5.00;;;4.50;;
14817;SDS011;7500;57.698;11.986;2022-11-15T07:01:24;5.73;;;4.80;;
14817;SDS011;7500;57.698;11.986;2022-11-15T07:03:51;5.53;;;4.63;;
14817;SDS011;7500;57.698;11.986;2022-11-15T07:06:17;6.57;;;4.50;;
14817;SDS011;7500;57.698;11.986;2022-11-15T07:08:44;4.80;;;4.23;;
14817;SDS011;7500;57.698;11.986;2022-11-15T07:11:13;6.37;;;4.60;;
14817;SDS011;7500;57.698;11.986;2022-11-15T07:13:39;4.97;;;4.10;;
14817;SDS011;7500;57.698;11.986;2022-11-15T07:16:07;8.07;;;4.90;;
14817;SDS011;7500;57.698;11.986;2022-11-15T07:18:36;5.60;;;4.60;;
14817;SDS011;7500;57.698;11.986;2022-11-15T07:21:05;4.87;;;4.20;;
14817;SDS011;7500;57.698;11.986;2022-11-15T07:23:33;7.47;;;4.57;;
14817;SDS011;7500;57.698;11.986;2022-11-15T07:26:01;6.63;;;4.13;;
14817;SDS011;7500;57.698;11.986;2022-11-15T07:28:30;7.20;;;4.27;;
14817;SDS011;7500;57.698;11.986;2022-11-15T07:30:57;7.17;;;4.40;;
14817;SDS011;7500;57.698;11.986;2022-11-15T07:33:23;8.17;;;4.37;;
14817;SDS011;7500;57.698;11.986;2022-11-15T07:35:50;5.03;;;3.93;;
14817;SDS011;7500;57.698;11.986;2022-11-15T07:38:17;6.80;;;4.20;;
14817;SDS011;7500;57.698;11.986;2022-11-15T07:40:45;5.03;;;4.20;;
14817;SDS011;7500;57.698;11.986;2022-11-15T07:43:12;4.33;;;3.90;;
14817;SDS011;7500;57.698;11.986;2022-11-15T07:45:41;4.70;;;3.80;;
14817;SDS011;7500;57.698;11.986;2022-11-15T07:48:09;5.40;;;4.30;;
14817;SDS011;7500;57.698;11.986;2022-11-15T07:50:37;5.27;;;4.40;;
14817;SDS011;7500;57.698;11.986;2022-11-15T07:53:07;7.27;;;4.30;;
14817;SDS011;7500;57.698;11.986;2022-11-15T07:55:34;6.15;;;4.20;;
14817;SDS011;7500;57.698;11.986;2022-11-15T07:58:02;4.40;;;3.93;;
14817;SDS011;7500;57.698;11.986;2022-11-15T08:00:29;5.80;;;3.67;;
14817;SDS011;7500;57.698;11.986;2022-11-15T08:03:05;4.90;;;4.00;;
14817;SDS011;7500;57.698;11.986;2022-11-15T08:05:33;6.03;;;3.63;;
14817;SDS011;7500;57.698;11.986;2022-11-15T08:08:00;6.77;;;4.20;;
14817;SDS011;7500;57.698;11.986;2022-11-15T08:10:27;5.63;;;4.07;;
14817;SDS011;7500;57.698;11.986;2022-11-15T08:12:58;5.60;;;4.27;;
14817;SDS011;7500;57.698;11.986;2022-11-15T08:15:26;6.10;;;4.00;;
14817;SDS011;7500;57.698;11.986;2022-11-15T08:17:54;7.33;;;4.23;;
14817;SDS011;7500;57.698;11.986;2022-11-15T08:20:22;5.00;;;4.17;;
14817;SDS011;7500;57.698;11.986;2022-11-15T08:22:49;5.07;;;3.97;;
14817;SDS011;7500;57.698;11.986;2022-11-15T08:25:16;5.40;;;4.60;;
14817;SDS011;7500;57.698;11.986;2022-11-15T08:27:43;4.77;;;3.90;;
14817;SDS011;7500;57.698;11.986;2022-11-15T08:30:11;6.33;;;3.83;;
14817;SDS011;7500;57.698;11.986;2022-11-15T08:32:38;5.73;;;4.33;;
14817;SDS011;7500;57.698;11.986;2022-11-15T08:35:06;5.83;;;4.50;;
14817;SDS011;7500;57.698;11.986;2022-11-15T08:37:35;6.50;;;4.43;;
14817;SDS011;7500;57.698;11.986;2022-11-15T08:40:02;5.57;;;3.97;;
14817;SDS011;7500;57.698;11.986;2022-11-15T08:42:29;6.13;;;4.27;;
14817;SDS011;7500;57.698;11.986;2022-11-15T08:44:56;5.67;;;4.20;;
14817;SDS011;7500;57.698;11.986;2022-11-15T08:47:23;5.40;;;4.03;;
14817;SDS011;7500;57.698;11.986;2022-11-15T08:49:49;5.93;;;3.93;;
14817;SDS011;7500;57.698;11.986;2022-11-15T08:52:16;5.23;;;3.87;;
14817;SDS011;7500;57.698;11.986;2022-11-15T08:54:44;5.27;;;4.40;;
14817;SDS011;7500;57.698;11.986;2022-11-15T08:57:11;4.73;;;4.17;;
14817;SDS011;7500;57.698;11.986;2022-11-15T08:59:38;6.30;;;4.43;;
14817;SDS011;7500;57.698;11.986;2022-11-15T09:02:05;4.77;;;4.27;;
14817;SDS011;7500;57.698;11.986;2022-11-15T09:04:32;6.27;;;4.27;;
14817;SDS011;7500;57.698;11.986;2022-11-15T09:06:59;5.70;;;4.03;;
14817;SDS011;7500;57.698;11.986;2022-11-15T09:09:26;5.60;;;4.00;;
14817;SDS011;7500;57.698;11.986;2022-11-15T09:11:54;4.63;;;3.73;;
14817;SDS011;7500;57.698;11.986;2022-11-15T09:14:21;5.50;;;4.40;;
14817;SDS011;7500;57.698;11.986;2022-11-15T09:16:48;4.97;;;3.97;;
14817;SDS011;7500;57.698;11.986;2022-11-15T09:19:15;6.27;;;4.10;;
14817;SDS011;7500;57.698;11.986;2022-11-15T09:21:42;4.67;;;3.87;;
14817;SDS011;7500;57.698;11.986;2022-11-15T09:24:08;6.13;;;4.30;;
14817;SDS011;7500;57.698;11.986;2022-11-15T09:26:35;5.80;;;4.20;;
14817;SDS011;7500;57.698;11.986;2022-11-15T09:29:03;6.93;;;4.13;;
14817;SDS011;7500;57.698;11.986;2022-11-15T09:31:30;4.60;;;4.00;;
14817;SDS011;7500;57.698;11.986;2022-11-15T09:33:57;6.93;;;4.03;;
14817;SDS011;7500;57.698;11.986;2022-11-15T09:36:24;5.63;;;4.20;;
14817;SDS011;7500;57.698;11.986;2022-11-15T09:38:51;5.23;;;4.20;;
14817;SDS011;7500;57.698;11.986;2022-11-15T09:41:28;4.47;;;4.00;;
14817;SDS011;7500;57.698;11.986;2022-11-15T09:44:11;5.60;;;3.47;;
14817;SDS011;7500;57.698;11.986;2022-11-15T09:46:56;5.70;;;3.60;;
14817;SDS011;7500;57.698;11.986;2022-11-15T09:49:35;4.80;;;4.00;;
14817;SDS011;7500;57.698;11.986;2022-11-15T09:52:02;5.53;;;4.20;;
14817;SDS011;7500;57.698;11.986;2022-11-15T09:54:30;5.30;;;3.70;;
14817;SDS011;7500;57.698;11.986;2022-11-15T09:57:02;4.70;;;4.07;;
14817;SDS011;7500;57.698;11.986;2022-11-15T09:59:38;6.73;;;4.33;;
14817;SDS011;7500;57.698;11.986;2022-11-15T10:02:15;5.67;;;4.53;;
14817;SDS011;7500;57.698;11.986;2022-11-15T10:04:57;5.80;;;4.37;;
14817;SDS011;7500;57.698;11.986;2022-11-15T10:07:26;5.70;;;4.43;;
14817;SDS011;7500;57.698;11.986;2022-11-15T10:09:59;5.10;;;3.90;;
14817;SDS011;7500;57.698;11.986;2022-11-15T10:12:31;6.30;;;3.93;;
14817;SDS011;7500;57.698;11.986;2022-11-15T10:15:02;6.23;;;4.70;;
14817;SDS011;7500;57.698;11.986;2022-11-15T10:17:40;5.73;;;4.37;;
14817;SDS011;7500;57.698;11.986;2022-11-15T10:20:22;4.60;;;4.10;;
14817;SDS011;7500;57.698;11.986;2022-11-15T10:22:52;7.70;;;4.23;;
14817;SDS011;7500;57.698;11.986;2022-11-15T10:25:23;6.20;;;4.47;;
14817;SDS011;7500;57.698;11.986;2022-11-15T10:27:53;5.57;;;4.23;;
14817;SDS011;7500;57.698;11.986;2022-11-15T10:30:28;4.90;;;4.10;;
14817;SDS011;7500;57.698;11.986;2022-11-15T10:32:58;4.37;;;3.90;;
14817;SDS011;7500;57.698;11.986;2022-11-15T10:35:36;7.60;;;3.93;;
14817;SDS011;7500;57.698;11.986;2022-11-15T10:38:07;7.77;;;4.40;;
14817;SDS011;7500;57.698;11.986;2022-11-15T10:40:35;6.67;;;4.10;;
14817;SDS011;7500;57.698;11.986;2022-11-15T10:43:04;5.63;;;3.90;;
14817;SDS011;7500;57.698;11.986;2022-11-15T10:45:34;5.73;;;4.30;;
14817;SDS011;7500;57.698;11.986;2022-11-15T10:48:18;5.23;;;4.50;;
14817;SDS011;7500;57.698;11.986;2022-11-15T10:50:48;8.20;;;4.13;;
14817;SDS011;7500;57.698;11.986;2022-11-15T10:53:17;5.07;;;3.93;;
14817;SDS011;7500;57.698;11.986;2022-11-15T10:55:48;9.43;;;4.50;;
14817;SDS011;7500;57.698;11.986;2022-11-15T10:58:22;6.30;;;4.17;;
14817;SDS011;7500;57.698;11.986;2022-11-15T11:01:08;7.00;;;4.33;;
14817;SDS011;7500;57.698;11.986;2022-11-15T11:03:36;6.47;;;4.20;;
14817;SDS011;7500;57.698;11.986;2022-11-15T11:06:06;5.20;;;3.83;;
14817;SDS011;7500;57.698;11.986;2022-11-15T11:08:35;4.27;;;3.73;;
14817;SDS011;7500;57.698;11.986;2022-11-15T11:11:02;5.03;;;3.87;;
14817;SDS011;7500;57.698;11.986;2022-11-15T11:13:31;7.10;;;3.93;;
14817;SDS011;7500;57.698;11.986;2022-11-15T11:16:05;6.33;;;4.00;;
14817;SDS011;7500;57.698;11.986;2022-11-15T11:18:47;5.60;;;4.03;;
14817;SDS011;7500;57.698;11.986;2022-11-15T11:21:25;4.67;;;3.73;;
14817;SDS011;7500;57.698;11.986;2022-11-15T11:24:03;5.00;;;4.03;;
14817;SDS011;7500;57.698;11.986;2022-11-15T11:26:40;5.17;;;3.80;;
14817;SDS011;7500;57.698;11.986;2022-11-15T11:29:25;5.30;;;4.40;;
14817;SDS011;7500;57.698;11.986;2022-11-15T11:32:05;4.63;;;3.90;;
14817;SDS011;7500;57.698;11.986;2022-11-15T11:34:47;5.50;;;4.20;;
14817;SDS011;7500;57.698;11.986;2022-11-15T11:37:30;4.17;;;3.60;;
14817;SDS011;7500;57.698;11.986;2022-11-15T11:40:07;4.47;;;3.60;;
14817;SDS011;7500;57.698;11.986;2022-11-15T11:42:44;3.73;;;3.37;;
14817;SDS011;7500;57.698;11.986;2022-11-15T11:45:26;3.63;;;3.07;;
14817;SDS011;7500;57.698;11.986;2022-11-15T11:48:13;5.30;;;3.50;;
14817;SDS011;7500;57.698;11.986;2022-11-15T11:50:45;5.93;;;3.20;;
14817;SDS011;7500;57.698;11.986;2022-11-15T11:53:13;3.70;;;3.00;;
14817;SDS011;7500;57.698;11.986;2022-11-15T11:55:50;5.53;;;3.20;;
14817;SDS011;7500;57.698;11.986;2022-11-15T11:58:21;4.27;;;3.10;;
14817;SDS011;7500;57.698;11.986;2022-11-15T12:00:55;7.13;;;3.20;;
14817;SDS011;7500;57.698;11.986;2022-11-15T12:03:28;4.03;;;3.30;;
14817;SDS011;7500;57.698;11.986;2022-11-15T12:06:05;4.63;;;2.90;;
14817;SDS011;7500;57.698;11.986;2022-11-15T12:08:49;4.43;;;2.70;;
14817;SDS011;7500;57.698;11.986;2022-11-15T12:11:20;3.00;;;2.43;;
14817;SDS011;7500;57.698;11.986;2022-11-15T12:13:53;2.93;;;2.53;;
14817;SDS011;7500;57.698;11.986;2022-11-15T12:16:26;3.73;;;2.33;;
14817;SDS011;7500;57.698;11.986;2022-11-15T12:18:56;3.60;;;2.80;;
14817;SDS011;7500;57.698;11.986;2022-11-15T12:21:27;16.33;;;3.93;;
14817;SDS011;7500;57.698;11.986;2022-11-15T12:24:04;4.23;;;2.37;;
14817;SDS011;7500;57.698;11.986;2022-11-15T12:26:39;3.93;;;3.30;;
14817;SDS011;7500;57.698;11.986;2022-11-15T12:29:11;4.90;;;3.43;;
14817;SDS011;7500;57.698;11.986;2022-11-15T12:31:45;3.53;;;2.90;;
14817;SDS011;7500;57.698;11.986;2022-11-15T12:34:34;4.70;;;2.60;;
14817;SDS011;7500;57.698;11.986;2022-11-15T12:40:28;3.80;;;3.07;;
14817;SDS011;7500;57.698;11.986;2022-11-15T12:43:01;4.37;;;2.40;;
14817;SDS011;7500;57.698;11.986;2022-11-15T12:45:37;4.87;;;2.70;;
14817;SDS011;7500;57.698;11.986;2022-11-15T12:54:51;5.37;;;2.83;;
14817;SDS011;7500;57.698;11.986;2022-11-15T12:57:29;4.00;;;2.63;;
14817;SDS011;7500;57.698;11.986;2022-11-15T13:05:57;3.10;;;2.20;;
14817;SDS011;7500;57.698;11.986;2022-11-15T13:08:37;2.67;;;2.20;;
14817;SDS011;7500;57.698;11.986;2022-11-15T13:20:18;2.30;;;2.00;;
14817;SDS011;7500;57.698;11.986;2022-11-15T13:22:48;2.10;;;1.57;;
14817;SDS011;7500;57.698;11.986;2022-11-15T13:28:29;3.10;;;1.77;;
14817;SDS011;7500;57.698;11.986;2022-11-15T13:31:00;1.60;;;1.50;;
14817;SDS011;7500;57.698;11.986;2022-11-15T13:33:30;2.90;;;2.03;;
14817;SDS011;7500;57.698;11.986;2022-11-15T13:35:59;1.83;;;1.63;;
14817;SDS011;7500;57.698;11.986;2022-11-15T13:38:30;1.87;;;1.40;;
14817;SDS011;7500;57.698;11.986;2022-11-15T13:40:59;1.73;;;1.50;;
14817;SDS011;7500;57.698;11.986;2022-11-15T13:43:37;1.70;;;1.40;;
14817;SDS011;7500;57.698;11.986;2022-11-15T13:46:15;2.60;;;1.30;;
14817;SDS011;7500;57.698;11.986;2022-11-15T13:48:44;2.30;;;1.50;;
14817;SDS011;7500;57.698;11.986;2022-11-15T13:51:14;1.67;;;1.27;;
14817;SDS011;7500;57.698;11.986;2022-11-15T13:53:45;1.53;;;1.40;;
14817;SDS011;7500;57.698;11.986;2022-11-15T13:56:14;4.67;;;1.63;;
14817;SDS011;7500;57.698;11.986;2022-11-15T13:58:43;4.07;;;1.60;;
14817;SDS011;7500;57.698;11.986;2022-11-15T14:01:15;2.17;;;1.67;;
14817;SDS011;7500;57.698;11.986;2022-11-15T14:03:53;2.40;;;1.60;;
14817;SDS011;7500;57.698;11.986;2022-11-15T14:06:23;2.30;;;1.60;;
14817;SDS011;7500;57.698;11.986;2022-11-15T14:09:03;2.67;;;1.73;;
14817;SDS011;7500;57.698;11.986;2022-11-15T14:11:49;1.80;;;1.70;;
14817;SDS011;7500;57.698;11.986;2022-11-15T14:14:17;2.47;;;1.60;;
14817;SDS011;7500;57.698;11.986;2022-11-15T14:16:49;2.37;;;1.73;;
14817;SDS011;7500;57.698;11.986;2022-11-15T14:19:39;1.70;;;1.37;;
14817;SDS011;7500;57.698;11.986;2022-11-15T14:27:43;1.70;;;1.30;;
14817;SDS011;7500;57.698;11.986;2022-11-15T14:30:14;1.43;;;1.00;;
14817;SDS011;7500;57.698;11.986;2022-11-15T14:32:45;1.70;;;0.90;;
14817;SDS011;7500;57.698;11.986;2022-11-15T14:35:13;1.87;;;1.20;;
14817;SDS011;7500;57.698;11.986;2022-11-15T14:37:43;1.17;;;1.07;;
14817;SDS011;7500;57.698;11.986;2022-11-15T14:40:12;1.17;;;0.70;;
14817;SDS011;7500;57.698;11.986;2022-11-15T14:42:41;2.30;;;0.80;;
14817;SDS011;7500;57.698;11.986;2022-11-15T14:45:09;1.30;;;0.70;;
14817;SDS011;7500;57.698;11.986;2022-11-15T14:47:38;1.03;;;0.80;;
14817;SDS011;7500;57.698;11.986;2022-11-15T14:50:10;1.23;;;0.90;;
14817;SDS011;7500;57.698;11.986;2022-11-15T14:52:38;3.57;;;1.40;;
14817;SDS011;7500;57.698;11.986;2022-11-15T14:55:10;4.13;;;1.33;;
14817;SDS011;7500;57.698;11.986;2022-11-15T14:57:43;0.80;;;0.80;;
14817;SDS011;7500;57.698;11.986;2022-11-15T15:00:10;1.03;;;0.80;;
14817;SDS011;7500;57.698;11.986;2022-11-15T15:02:39;1.23;;;0.70;;
14817;SDS011;7500;57.698;11.986;2022-11-15T15:05:15;1.10;;;0.87;;
14817;SDS011;7500;57.698;11.986;2022-11-15T15:07:43;1.27;;;0.77;;
14817;SDS011;7500;57.698;11.986;2022-11-15T15:10:10;0.63;;;0.50;;
14817;SDS011;7500;57.698;11.986;2022-11-15T15:12:38;1.50;;;0.70;;
14817;SDS011;7500;57.698;11.986;2022-11-15T15:15:05;0.47;;;0.33;;
14817;SDS011;7500;57.698;11.986;2022-11-15T15:17:38;3.03;;;1.10;;
14817;SDS011;7500;57.698;11.986;2022-11-15T15:20:05;2.07;;;0.93;;
14817;SDS011;7500;57.698;11.986;2022-11-15T15:22:35;1.50;;;0.80;;
14817;SDS011;7500;57.698;11.986;2022-11-15T15:25:02;1.00;;;0.73;;
14817;SDS011;7500;57.698;11.986;2022-11-15T15:27:40;2.30;;;1.17;;
14817;SDS011;7500;57.698;11.986;2022-11-15T15:30:07;2.13;;;1.07;;
14817;SDS011;7500;57.698;11.986;2022-11-15T15:32:35;3.07;;;1.00;;
14817;SDS011;7500;57.698;11.986;2022-11-15T15:35:02;0.53;;;0.50;;
14817;SDS011;7500;57.698;11.986;2022-11-15T15:37:29;0.53;;;0.30;;
14817;SDS011;7500;57.698;11.986;2022-11-15T15:39:59;0.73;;;0.40;;
14817;SDS011;7500;57.698;11.986;2022-11-15T15:42:26;2.40;;;0.40;;
14817;SDS011;7500;57.698;11.986;2022-11-15T15:44:53;0.60;;;0.50;;
14817;SDS011;7500;57.698;11.986;2022-11-15T15:47:20;0.90;;;0.30;;